Time;durP1;ratioP1;P1;durP2;ratioP2;P2;SDS_P1;SDS_P2;PMS_P1;PMS_P2;Temp;Humidity;BMP_temperature;BMP_pressure;BME280_temperature;BME280_humidity;BME280_pressure;Samples;Min_cycle;Max_cycle;Signal;HPM_P1;HPM_P2
2024/01/22 00:02:34;;;;;;;12.38;5.63;;;;;;;-147.20;100.00;63046.97;31669985;28;20036;-68
2024/01/22 00:17:34;;;;;;;8.95;5.00;;;;;;;-147.20;100.00;63046.97;31667822;28;34442;-68
2024/01/22 00:32:34;;;;;;;8.18;5.03;;;;;;;-147.20;100.00;63046.97;31665715;28;35847;-64
2024/01/22 00:47:36;;;;;;;8.30;4.88;;;;;;;-147.20;100.00;63046.97;31662991;28;20055;-66
2024/01/22 01:02:36;;;;;;;8.35;4.55;;;;;;;-147.20;100.00;63046.97;31663448;28;20028;-62
2024/01/22 01:17:37;;;;;;;9.50;4.10;;;;;;;-147.20;100.00;63046.97;31661586;28;33794;-63
2024/01/22 01:32:37;;;;;;;7.72;3.90;;;;;;;-147.20;100.00;63046.97;31661433;28;35845;-65
2024/01/22 01:47:37;;;;;;;8.05;4.25;;;;;;;-147.20;100.00;63046.97;31660832;28;20056;-68
2024/01/22 02:02:41;;;;;;;5.07;2.85;;;;;;;-147.20;100.00;63046.97;31677450;28;20031;-68
2024/01/22 02:17:41;;;;;;;5.10;3.15;;;;;;;-147.20;100.00;63046.97;31681095;28;20367;-64
2024/01/22 02:32:41;;;;;;;5.13;3.00;;;;;;;-147.20;100.00;63046.97;31678762;28;33976;-63
2024/01/22 02:47:42;;;;;;;4.65;2.65;;;;;;;-147.20;100.00;63046.97;31675548;28;34664;-68
2024/01/22 03:02:42;;;;;;;5.60;2.90;;;;;;;-147.20;100.00;63046.97;31673998;28;33893;-69
2024/01/22 03:17:42;;;;;;;5.35;3.60;;;;;;;-147.20;100.00;63046.97;31673345;28;34769;-65
2024/01/22 03:32:42;;;;;;;6.65;3.33;;;;;;;-147.20;100.00;63046.97;31672219;28;23390;-68
2024/01/22 03:47:43;;;;;;;7.95;3.15;;;;;;;-147.20;100.00;63046.97;31669569;28;35928;-64
2024/01/22 04:02:43;;;;;;;5.47;3.10;;;;;;;-147.20;100.00;63046.97;31667915;28;34707;-62
2024/01/22 04:17:43;;;;;;;6.32;3.15;;;;;;;-147.20;100.00;63046.97;31666618;28;20370;-66
2024/01/22 04:32:44;;;;;;;5.53;2.97;;;;;;;-147.20;100.00;63046.97;31663209;28;34766;-64
2024/01/22 04:47:44;;;;;;;6.20;2.95;;;;;;;-147.20;100.00;63046.97;31661491;28;35837;-65
2024/01/22 05:02:45;;;;;;;6.95;3.53;;;;;;;-147.20;100.00;63046.97;31659789;28;28296;-63
2024/01/22 05:17:45;;;;;;;5.63;2.95;;;;;;;-147.20;100.00;63046.97;31659533;28;20033;-62
2024/01/22 05:32:46;;;;;;;7.90;3.88;;;;;;;-147.20;100.00;63046.97;31669777;28;20038;-66
2024/01/22 05:47:46;;;;;;;7.38;3.33;;;;;;;-147.20;100.00;63046.97;31678218;28;20052;-67
2024/01/22 06:02:47;;;;;;;6.32;2.75;;;;;;;-147.20;100.00;63046.97;31679542;28;20044;-66
2024/01/22 06:17:49;;;;;;;9.75;4.45;;;;;;;-147.20;100.00;63046.97;31676651;28;20377;-64
2024/01/22 06:32:50;;;;;;;10.30;5.40;;;;;;;-147.20;100.00;63046.97;31674294;28;20086;-68
2024/01/22 06:47:50;;;;;;;9.63;5.43;;;;;;;-147.20;100.00;63046.97;31671413;28;20138;-68
2024/01/22 07:02:50;;;;;;;7.13;3.83;;;;;;;-147.20;100.00;63046.97;31672978;28;20396;-68
2024/01/22 07:17:51;;;;;;;8.07;3.75;;;;;;;-147.20;100.00;63046.97;31671366;28;20029;-62
2024/01/22 07:32:51;;;;;;;8.25;4.15;;;;;;;-147.20;100.00;63046.97;31669873;28;20110;-62
2024/01/22 07:47:51;;;;;;;9.20;4.90;;;;;;;-147.20;100.00;63046.97;31665618;28;35727;-67
2024/01/22 08:02:51;;;;;;;8.63;4.07;;;;;;;-147.20;100.00;63046.97;31663722;28;34406;-67
2024/01/22 08:17:52;;;;;;;10.50;3.80;;;;;;;-147.20;100.00;63046.97;31663539;28;35900;-64
2024/01/22 08:32:52;;;;;;;7.43;3.10;;;;;;;-147.20;100.00;63046.97;31661022;28;36207;-69
2024/01/22 08:47:53;;;;;;;6.68;3.90;;;;;;;-147.20;100.00;63046.97;31660615;28;20052;-63
2024/01/22 09:02:53;;;;;;;8.07;3.80;;;;;;;-147.20;100.00;63046.97;31658314;28;20029;-65
2024/01/22 09:17:53;;;;;;;7.03;3.38;;;;;;;-147.20;100.00;63046.97;31657072;28;34947;-67
2024/01/22 09:32:57;;;;;;;6.05;3.60;;;;;;;-147.20;100.00;63046.97;31656609;28;20094;-67
2024/01/22 09:47:59;;;;;;;12.40;4.20;;;;;;;-147.20;100.00;63046.97;31656034;28;20056;-64
2024/01/22 10:03:00;;;;;;;6.63;4.13;;;;;;;-147.20;100.00;63046.97;31657622;28;20036;-67
2024/01/22 10:18:11;;;;;;;7.55;3.60;;;;;;;-147.20;100.00;63046.97;31664050;28;20040;-67
2024/01/22 10:33:16;;;;;;;7.00;3.03;;;;;;;-147.20;100.00;63046.97;31674347;28;20145;-63
2024/01/22 10:48:18;;;;;;;6.43;2.63;;;;;;;-147.20;100.00;63046.97;31672767;28;20083;-69
2024/01/22 11:03:25;;;;;;;6.68;3.72;;;;;;;-147.20;100.00;63046.97;31671917;28;20036;-65
2024/01/22 11:18:25;;;;;;;6.45;4.10;;;;;;;-147.20;100.00;63046.97;31670654;28;20075;-63
2024/01/22 11:33:26;;;;;;;7.55;4.32;;;;;;;-147.20;100.00;63046.97;31667511;28;20496;-67
2024/01/22 11:48:27;;;;;;;6.88;4.03;;;;;;;-147.20;100.00;63046.97;31666635;28;20059;-63
2024/01/22 12:03:28;;;;;;;10.13;4.50;;;;;;;-147.20;100.00;63046.97;31665327;28;33567;-64
2024/01/22 12:18:29;;;;;;;9.02;4.72;;;;;;;-147.20;100.00;63046.97;31664675;28;20064;-64
2024/01/22 12:33:30;;;;;;;12.15;5.55;;;;;;;-147.20;100.00;63046.97;31661453;28;35865;-67
2024/01/22 12:48:31;;;;;;;8.93;5.47;;;;;;;-147.20;100.00;63046.97;31662141;28;20047;-70
2024/01/22 13:03:31;;;;;;;8.85;5.38;;;;;;;-147.20;100.00;63046.97;31660197;28;23549;-65
2024/01/22 13:18:31;;;;;;;6.68;3.78;;;;;;;-147.20;100.00;63046.97;31658433;28;20037;-63
2024/01/22 13:33:32;;;;;;;6.57;3.25;;;;;;;-147.20;100.00;63046.97;31655960;28;33673;-68
2024/01/22 13:48:32;;;;;;;6.95;4.55;;;;;;;-147.20;100.00;63046.97;31656259;28;34421;-63
2024/01/22 14:03:33;;;;;;;7.95;4.95;;;;;;;-147.20;100.00;63046.97;31677416;28;20036;-62
2024/01/22 14:18:33;;;;;;;7.32;4.35;;;;;;;-147.20;100.00;63046.97;31677012;28;20119;-63
2024/01/22 14:33:34;;;;;;;7.18;4.40;;;;;;;-147.20;100.00;63046.97;31674343;28;34368;-67
2024/01/22 14:48:34;;;;;;;8.68;5.25;;;;;;;-147.20;100.00;63046.97;31673698;28;20071;-65
2024/01/22 15:03:35;;;;;;;7.38;3.65;;;;;;;-147.20;100.00;63046.97;31669744;28;20103;-64
2024/01/22 15:18:35;;;;;;;7.90;4.47;;;;;;;-147.20;100.00;63046.97;31669539;28;20035;-63
2024/01/22 15:33:35;;;;;;;11.02;5.60;;;;;;;-147.20;100.00;63046.97;31668053;28;20044;-64
2024/01/22 15:48:36;;;;;;;11.15;5.30;;;;;;;-147.20;100.00;63046.97;31666650;28;33746;-65
2024/01/22 16:03:36;;;;;;;7.68;4.60;;;;;;;-147.20;100.00;63046.97;31664882;28;36087;-64
2024/01/22 16:18:40;;;;;;;8.57;4.47;;;;;;;-147.20;100.00;63046.97;31664533;28;34354;-65
2024/01/22 16:33:40;;;;;;;8.57;4.47;;;;;;;-147.20;100.00;63046.97;31663379;28;20132;-67
2024/01/22 16:48:41;;;;;;;9.25;4.85;;;;;;;-147.20;100.00;63046.97;31661121;28;33116;-67
2024/01/22 17:03:43;;;;;;;13.68;5.78;;;;;;;-147.20;100.00;63046.97;31659872;28;20515;-66
2024/01/22 17:18:43;;;;;;;7.47;4.45;;;;;;;-147.20;100.00;63046.97;31658377;28;20454;-67
2024/01/22 17:33:44;;;;;;;8.20;4.45;;;;;;;-147.20;100.00;63046.97;31654324;28;20152;-63
2024/01/22 17:48:44;;;;;;;14.50;5.55;;;;;;;-147.20;100.00;63046.97;31654260;28;20104;-65
2024/01/22 18:03:45;;;;;;;10.35;6.10;;;;;;;-147.20;100.00;63046.97;31656835;28;20165;-65
2024/01/22 18:18:45;;;;;;;11.95;6.45;;;;;;;-147.20;100.00;63046.97;31657259;28;20028;-68
2024/01/22 18:33:46;;;;;;;12.57;6.80;;;;;;;3.44;61.48;99839.13;31620621;28;35832;-65
2024/01/22 18:48:46;;;;;;;10.65;5.88;;;;;;;3.27;62.80;99819.50;31627424;28;20055;-68
2024/01/22 19:03:46;;;;;;;16.60;7.30;;;;;;;3.18;63.91;99805.34;31629392;28;20037;-67
2024/01/22 19:18:47;;;;;;;10.38;6.53;;;;;;;3.22;64.61;99804.13;31625232;28;20903;-64
2024/01/22 19:33:47;;;;;;;12.77;8.07;;;;;;;3.25;65.28;99827.53;31625024;28;20116;-65
2024/01/22 19:48:48;;;;;;;10.25;6.55;;;;;;;3.21;65.90;99823.50;31621446;28;41539;-65
2024/01/22 20:03:48;;;;;;;10.07;6.25;;;;;;;3.24;66.34;99867.16;31623622;28;41625;-67
2024/01/22 20:18:48;;;;;;;13.32;7.97;;;;;;;3.30;66.16;99883.28;31617945;28;42522;-65
2024/01/22 20:33:48;;;;;;;13.65;7.93;;;;;;;3.26;66.46;99900.31;31619090;28;23088;-70
2024/01/22 20:48:49;;;;;;;13.05;7.72;;;;;;;3.51;66.87;99912.22;31489864;28;40751;-66
2024/01/22 21:03:49;;;;;;;10.65;6.20;;;;;;;3.98;67.29;99918.78;31484408;28;25521;-68
2024/01/22 21:18:49;;;;;;;10.82;6.20;;;;;;;4.63;67.04;99936.78;31585557;28;41602;-63
2024/01/22 21:33:50;;;;;;;8.20;5.43;;;;;;;5.02;66.62;99961.38;31603321;28;43010;-69
2024/01/22 21:48:51;;;;;;;9.13;6.03;;;;;;;5.15;66.06;99969.00;31603742;28;20049;-65
2024/01/22 22:03:51;;;;;;;9.75;4.85;;;;;;;5.38;65.99;99988.00;31599658;28;42955;-62
2024/01/22 22:18:51;;;;;;;10.88;5.72;;;;;;;5.39;65.65;99989.69;31625402;28;41717;-66
2024/01/22 22:33:51;;;;;;;12.27;5.85;;;;;;;5.36;65.52;100019.03;31633145;28;20366;-64
2024/01/22 22:48:52;;;;;;;19.05;8.52;;;;;;;5.39;66.28;99999.44;31631919;28;43199;-64
2024/01/22 23:03:52;;;;;;;11.32;5.75;;;;;;;5.19;66.50;100017.09;31632866;28;20082;-67
2024/01/22 23:18:52;;;;;;;8.85;4.05;;;;;;;5.12;66.95;100016.00;31630089;28;43209;-71
2024/01/22 23:33:53;;;;;;;9.10;5.80;;;;;;;4.99;67.40;100038.22;31627384;28;41446;-68
2024/01/22 23:48:53;;;;;;;9.18;4.63;;;;;;;4.86;67.71;100050.84;31625926;28;43137;-69
